CYYR

Goose Bay Airport

Goose Bay, Canada
METAR CYYR 250000Z 25007KT 15SM FEW058 SCT074 BKN090 05/02 A2988 RMK SC2AC2AC2 SLP121
Observed Flight Rules
Apr-25 @ 00:00 UTC (46 minutes ago) Visual Flight Rules
Wind Visibility Clouds
250° at 7 knots 15 miles
  • Few at 5,800' AGL
  • Scattered at 7,400' AGL
  • Broken at 9,000' AGL
Temperatures Readings
Current 5°C / 41°F
Dewpoint 2°C / 36°F
Humidity 81%
Altimeter 29.88" Hg
Pressure 1012.1 hPa
Elevation 49
METAR CYYR 250000Z 25007KT 15SM FEW058 SCT074 BKN090 05/02 A2988 RMK SC2AC2AC2 SLP121
Observed Flight Rules
Apr-25 @ 00:00 UTC
(46 minutes ago)
VFR
Wind Visibility
250° at 7 knots 15 miles
Clouds
  • Few at 5,800' AGL
  • Scattered at 7,400' AGL
  • Broken at 9,000' AGL
Temperature Dewpoint
5°C / 41°F 2°C / 36°F
Humidity Altimeter Pressure
81% 29.88" Hg 1012.1 hPa